Time;durP1;ratioP1;P1;durP2;ratioP2;P2;SDS_P1;SDS_P2;PMS_P1;PMS_P2;Temp;Humidity;BMP_temperature;BMP_pressure;BME280_temperature;BME280_humidity;BME280_pressure;Samples;Min_cycle;Max_cycle;Signal;HPM_P1;HPM_P2
2023/06/25 00:00:44;;;;;;;1999.90;999.90;;;23.90;75.20;;;;;;5052151;28;20321;-67
2023/06/25 00:03:18;;;;;;;1999.90;999.90;;;24.10;74.30;;;;;;5069791;28;20033;-68
2023/06/25 00:05:49;;;;;;;1999.90;999.90;;;24.20;74.40;;;;;;5048462;28;20396;-68
2023/06/25 00:08:23;;;;;;;1999.90;999.90;;;24.40;73.20;;;;;;5056478;28;20833;-70
2023/06/25 00:10:54;;;;;;;1999.90;999.90;;;24.50;73.60;;;;;;5054221;28;20025;-70
2023/06/25 00:13:21;;;;;;;1999.90;999.90;;;24.70;71.80;;;;;;5055505;28;20066;-69
2023/06/25 00:15:48;;;;;;;1999.90;999.90;;;24.70;72.60;;;;;;5057064;28;20139;-71
2023/06/25 00:18:16;;;;;;;1999.90;999.90;;;24.90;72.20;;;;;;5053331;28;20025;-70
2023/06/25 00:20:46;;;;;;;1999.90;999.90;;;25.10;71.20;;;;;;5053927;28;20063;-73
2023/06/25 00:23:13;;;;;;;1999.90;999.90;;;25.20;71.80;;;;;;5061364;28;20625;-69
2023/06/25 00:25:41;;;;;;;1999.90;999.90;;;25.60;70.40;;;;;;5064208;28;20027;-71
2023/06/25 00:28:08;;;;;;;1999.90;999.90;;;25.70;70.70;;;;;;5064136;28;20052;-70
2023/06/25 00:30:37;;;;;;;1999.90;999.90;;;26.10;70.50;;;;;;5051489;28;20039;-72
2023/06/25 00:33:05;;;;;;;1999.90;999.90;;;25.90;68.60;;;;;;5058392;28;20039;-75
2023/06/25 00:36:08;;;;;;;1999.90;999.90;;;25.60;68.20;;;;;;5066900;28;20024;-73
2023/06/25 00:38:39;;;;;;;1999.90;999.90;;;25.10;69.50;;;;;;5034633;28;20397;-74
2023/06/25 00:41:11;;;;;;;1999.90;999.90;;;25.20;69.10;;;;;;5063876;28;20158;-73
2023/06/25 00:43:41;;;;;;;1999.90;999.90;;;24.70;69.30;;;;;;5065965;28;20046;-73
2023/06/25 00:46:15;;;;;;;1999.90;999.90;;;24.90;70.00;;;;;;5076626;28;20112;-70
2023/06/25 00:48:45;;;;;;;1999.90;999.90;;;25.20;69.90;;;;;;5066585;28;20044;-69
2023/06/25 00:51:27;;;;;;;1999.90;999.90;;;25.70;68.90;;;;;;5057118;28;20037;-69
2023/06/25 00:53:54;;;;;;;1999.90;999.90;;;25.70;68.20;;;;;;5066978;28;20023;-70
2023/06/25 00:56:27;;;;;;;1999.90;999.90;;;25.90;68.50;;;;;;5059713;28;20040;-70
2023/06/25 00:59:05;;;;;;;1999.90;999.90;;;26.20;68.90;;;;;;5068454;28;20120;-69
2023/06/25 01:02:07;;;;;;;1999.90;999.90;;;26.80;68.50;;;;;;5060882;28;20024;-69
2023/06/25 01:04:42;;;;;;;1999.90;999.90;;;27.20;67.30;;;;;;5062678;28;20052;-69
2023/06/25 01:07:16;;;;;;;1999.90;999.90;;;27.10;66.80;;;;;;5055748;28;20474;-68
2023/06/25 01:09:50;;;;;;;1999.90;999.90;;;27.20;66.90;;;;;;5062673;28;20488;-68
2023/06/25 01:12:20;;;;;;;1999.90;999.90;;;26.50;67.20;;;;;;5060672;28;20045;-69
2023/06/25 01:14:50;;;;;;;1999.90;999.90;;;26.80;67.10;;;;;;5062967;28;20082;-69
2023/06/25 01:17:18;;;;;;;1999.90;999.90;;;25.60;67.10;;;;;;5058367;28;20025;-69
2023/06/25 01:19:45;;;;;;;1999.90;999.90;;;24.80;68.30;;;;;;5060995;28;20051;-71
2023/06/25 01:22:15;;;;;;;1999.90;999.90;;;25.30;68.90;;;;;;5062536;28;20032;-70
2023/06/25 01:24:44;;;;;;;1999.90;999.90;;;26.20;67.80;;;;;;5057225;28;20064;-70
2023/06/25 01:27:12;;;;;;;1999.90;999.90;;;26.90;67.30;;;;;;5058124;28;20029;-75
2023/06/25 01:29:39;;;;;;;1999.90;999.90;;;26.90;66.20;;;;;;5061346;28;20031;-70
2023/06/25 01:32:08;;;;;;;1999.90;999.90;;;26.20;66.50;;;;;;5056649;28;20017;-78
2023/06/25 01:34:35;;;;;;;1999.90;999.90;;;26.00;66.90;;;;;;5055101;28;20446;-66
2023/06/25 01:37:02;;;;;;;1999.90;999.90;;;26.20;66.60;;;;;;5055308;28;20550;-70
2023/06/25 01:39:30;;;;;;;1999.90;999.90;;;26.10;66.00;;;;;;5059152;28;20044;-68
2023/06/25 01:41:57;;;;;;;1999.90;999.90;;;25.20;67.60;;;;;;5048735;28;20021;-69
2023/06/25 01:44:29;;;;;;;1999.90;999.90;;;25.70;67.00;;;;;;5056176;28;20036;-69
2023/06/25 01:46:57;;;;;;;1999.90;999.90;;;25.70;65.70;;;;;;5050845;28;20029;-75
2023/06/25 01:49:25;;;;;;;1999.90;999.90;;;25.40;65.60;;;;;;5054968;28;20035;-70
2023/06/25 01:51:53;;;;;;;1999.90;999.90;;;24.90;66.10;;;;;;5056172;28;22230;-70
2023/06/25 01:54:20;;;;;;;1999.90;999.90;;;25.20;66.70;;;;;;5051885;28;20025;-68
2023/06/25 01:56:48;;;;;;;1999.90;999.90;;;26.00;66.10;;;;;;5050206;28;20027;-68
2023/06/25 01:59:16;;;;;;;1999.90;999.90;;;25.50;64.90;;;;;;5049775;28;22234;-70
2023/06/25 02:01:43;;;;;;;1999.90;999.90;;;25.00;65.40;;;;;;5047554;28;20108;-71
2023/06/25 02:04:11;;;;;;;1999.90;999.90;;;25.10;65.80;;;;;;5045996;28;20049;-71
2023/06/25 02:06:38;;;;;;;1999.90;999.90;;;24.50;66.50;;;;;;5050121;28;20029;-69
2023/06/25 02:09:07;;;;;;;1999.90;999.90;;;24.50;66.10;;;;;;5051856;28;20507;-71
2023/06/25 02:11:35;;;;;;;1999.90;999.90;;;24.10;66.30;;;;;;5053491;28;20033;-71
2023/06/25 02:14:05;;;;;;;1999.90;999.90;;;24.30;66.40;;;;;;5065382;28;20154;-71
2023/06/25 02:16:33;;;;;;;1999.90;999.90;;;24.40;66.50;;;;;;5053778;28;20048;-68
2023/06/25 02:19:00;;;;;;;1999.90;999.90;;;24.70;66.50;;;;;;5061449;28;20524;-71
2023/06/25 02:21:28;;;;;;;1999.90;999.90;;;24.90;66.20;;;;;;5058620;28;20025;-69
2023/06/25 02:23:55;;;;;;;1999.90;999.90;;;25.30;65.50;;;;;;5054868;28;20092;-75
2023/06/25 02:26:23;;;;;;;1999.90;999.90;;;25.50;64.40;;;;;;5055749;28;20025;-68
2023/06/25 02:28:50;;;;;;;1999.90;999.90;;;24.90;65.60;;;;;;5064084;28;20415;-69
2023/06/25 02:31:18;;;;;;;1999.90;999.90;;;25.40;66.40;;;;;;5049555;28;20040;-68
2023/06/25 02:33:45;;;;;;;1999.90;999.90;;;25.50;64.70;;;;;;5050130;28;20125;-68
2023/06/25 02:36:12;;;;;;;1999.90;999.90;;;25.10;65.30;;;;;;5051799;28;20039;-69
2023/06/25 02:38:40;;;;;;;1999.90;999.90;;;24.80;65.20;;;;;;5057418;28;20029;-72
2023/06/25 02:41:07;;;;;;;1999.90;999.90;;;25.10;65.40;;;;;;5055096;28;20487;-73
2023/06/25 02:43:35;;;;;;;1999.90;999.90;;;24.60;65.90;;;;;;5061275;28;20025;-71
2023/06/25 02:46:02;;;;;;;1999.90;999.90;;;24.80;65.90;;;;;;5054681;28;20471;-71
2023/06/25 02:48:29;;;;;;;1999.90;999.90;;;25.00;65.20;;;;;;5063136;28;20032;-70
2023/06/25 02:50:56;;;;;;;1999.90;999.90;;;24.60;65.90;;;;;;5054863;28;20058;-75
2023/06/25 02:53:24;;;;;;;1999.90;999.90;;;24.70;66.20;;;;;;5065665;28;20107;-74
2023/06/25 02:55:51;;;;;;;1999.90;999.90;;;24.50;65.40;;;;;;5057654;28;20029;-74
2023/06/25 02:58:18;;;;;;;1999.90;999.90;;;24.60;65.90;;;;;;5055948;28;20071;-73
2023/06/25 03:00:46;;;;;;;1999.90;999.90;;;24.20;65.80;;;;;;5053351;28;20021;-72
2023/06/25 03:03:13;;;;;;;1999.90;999.90;;;24.10;66.30;;;;;;5055387;28;20020;-71
2023/06/25 03:05:40;;;;;;;1999.90;999.90;;;23.90;65.60;;;;;;5055773;28;20033;-75
2023/06/25 03:08:08;;;;;;;1999.90;999.90;;;23.70;66.00;;;;;;5056316;28;20494;-72
2023/06/25 03:10:37;;;;;;;1999.90;999.90;;;23.30;65.80;;;;;;5055403;28;20029;-70
2023/06/25 03:13:06;;;;;;;1999.90;999.90;;;23.20;66.30;;;;;;5058911;28;20044;-71
2023/06/25 03:15:33;;;;;;;1999.90;999.90;;;22.70;66.30;;;;;;5053955;28;20028;-72
2023/06/25 03:18:00;;;;;;;1999.90;999.90;;;22.50;66.30;;;;;;5060298;28;21040;-70
2023/06/25 03:20:27;;;;;;;1999.90;999.90;;;22.30;66.70;;;;;;5058446;28;20029;-72
2023/06/25 03:22:55;;;;;;;1999.90;999.90;;;21.90;66.90;;;;;;5061341;28;20089;-72
2023/06/25 03:25:22;;;;;;;1999.90;999.90;;;21.60;67.00;;;;;;5058136;28;20126;-74
2023/06/25 03:27:49;;;;;;;1999.90;999.90;;;21.20;67.80;;;;;;5071752;28;20119;-70
2023/06/25 03:30:17;;;;;;;1999.90;999.90;;;20.90;68.10;;;;;;5059473;28;21145;-72
2023/06/25 03:32:44;;;;;;;1999.90;999.90;;;20.70;68.60;;;;;;5049848;28;20064;-71
2023/06/25 03:35:11;;;;;;;1999.90;999.90;;;20.60;69.00;;;;;;5048430;28;20040;-72
2023/06/25 03:37:39;;;;;;;1999.90;999.90;;;20.50;68.90;;;;;;5053784;28;20033;-72
2023/06/25 03:40:07;;;;;;;1999.90;999.90;;;20.50;69.30;;;;;;5056496;28;20037;-72
2023/06/25 03:42:34;;;;;;;1999.90;999.90;;;20.40;69.10;;;;;;5064101;28;20384;-72
2023/06/25 03:45:01;;;;;;;1999.90;999.90;;;20.30;69.40;;;;;;5054516;28;20041;-73
2023/06/25 03:47:30;;;;;;;1999.90;999.90;;;20.20;69.40;;;;;;5057762;28;20028;-71
2023/06/25 03:49:57;;;;;;;1999.90;999.90;;;20.10;70.10;;;;;;5056757;28;20483;-74
2023/06/25 03:52:25;;;;;;;1999.90;999.90;;;20.00;70.40;;;;;;5068732;28;20028;-72
2023/06/25 03:54:52;;;;;;;1999.90;999.90;;;19.90;70.30;;;;;;5053134;28;20444;-73
2023/06/25 03:57:22;;;;;;;1999.90;999.90;;;19.90;69.90;;;;;;5051821;28;20036;-73
2023/06/25 03:59:49;;;;;;;1999.90;999.90;;;19.90;70.10;;;;;;5051773;28;20124;-75
2023/06/25 04:02:17;;;;;;;1999.90;999.90;;;19.80;70.70;;;;;;5055551;28;20025;-72
2023/06/25 04:04:44;;;;;;;1999.90;999.90;;;19.70;70.30;;;;;;5051612;28;20052;-73
2023/06/25 04:07:11;;;;;;;1999.90;999.90;;;19.70;69.70;;;;;;5056931;28;20056;-73
2023/06/25 04:09:38;;;;;;;1999.90;999.90;;;19.60;69.70;;;;;;5057829;28;20023;-72
2023/06/25 04:12:06;;;;;;;1999.90;999.90;;;19.60;69.90;;;;;;5047742;28;20032;-75
2023/06/25 04:14:34;;;;;;;1999.90;999.90;;;19.60;70.10;;;;;;5046760;28;20023;-72
2023/06/25 04:17:01;;;;;;;1999.90;999.90;;;19.60;70.60;;;;;;5045439;28;20464;-71
2023/06/25 04:19:29;;;;;;;1999.90;999.90;;;19.50;69.90;;;;;;5054042;28;20048;-73
2023/06/25 04:21:56;;;;;;;1999.90;999.90;;;19.50;69.30;;;;;;5043848;28;20021;-71
2023/06/25 04:24:24;;;;;;;1999.90;999.90;;;19.40;69.90;;;;;;5051284;28;20040;-72
2023/06/25 04:26:51;;;;;;;1999.90;999.90;;;19.40;70.50;;;;;;5051032;28;20033;-71
2023/06/25 04:29:19;;;;;;;1999.90;999.90;;;19.40;70.50;;;;;;5049392;28;20032;-71
2023/06/25 04:31:46;;;;;;;1999.90;999.90;;;19.30;70.50;;;;;;5047990;28;20047;-72
2023/06/25 04:34:13;;;;;;;1999.90;999.90;;;19.30;71.20;;;;;;5051297;28;20070;-70
2023/06/25 04:36:40;;;;;;;1999.90;999.90;;;19.30;70.50;;;;;;5045336;28;20368;-71
2023/06/25 04:39:08;;;;;;;1999.90;999.90;;;19.30;70.20;;;;;;5050750;28;20041;-71
2023/06/25 04:41:35;;;;;;;1999.90;999.90;;;19.30;70.00;;;;;;5047144;28;20020;-71
2023/06/25 04:44:03;;;;;;;1999.90;999.90;;;19.30;70.40;;;;;;5054814;28;20028;-72
2023/06/25 04:46:30;;;;;;;1999.90;999.90;;;19.20;70.90;;;;;;5043335;28;20108;-74
2023/06/25 04:48:58;;;;;;;1999.90;999.90;;;19.20;71.10;;;;;;5054677;28;20074;-73
2023/06/25 04:51:25;;;;;;;1999.90;999.90;;;19.10;71.30;;;;;;5055848;28;20033;-72
2023/06/25 04:53:52;;;;;;;1999.90;999.90;;;19.10;70.60;;;;;;5060388;28;20147;-71
2023/06/25 04:56:19;;;;;;;1999.90;999.90;;;19.20;70.50;;;;;;5055355;28;20040;-71
2023/06/25 04:58:47;;;;;;;1999.90;999.90;;;19.10;70.20;;;;;;5049324;28;20064;-70
2023/06/25 05:01:14;;;;;;;1999.90;999.90;;;19.10;69.40;;;;;;5050155;28;20023;-71
2023/06/25 05:03:42;;;;;;;1999.90;999.90;;;19.10;69.50;;;;;;5052665;28;20075;-72
2023/06/25 05:06:09;;;;;;;1999.90;999.90;;;19.10;69.20;;;;;;5040486;28;20059;-71
2023/06/25 05:08:36;;;;;;;1999.90;999.90;;;19.00;68.80;;;;;;5055896;28;20087;-72
2023/06/25 05:11:03;;;;;;;1999.90;999.90;;;19.00;68.60;;;;;;5056360;28;20033;-72
2023/06/25 05:13:31;;;;;;;1999.90;999.90;;;19.00;68.80;;;;;;5050225;28;20036;-72
2023/06/25 05:15:58;;;;;;;1999.90;999.90;;;19.00;69.20;;;;;;5057021;28;20029;-72
2023/06/25 05:18:25;;;;;;;1999.90;999.90;;;19.00;69.10;;;;;;5051751;28;20040;-75
2023/06/25 05:20:53;;;;;;;1999.90;999.90;;;18.90;69.40;;;;;;5063455;28;20021;-73
2023/06/25 05:23:20;;;;;;;1999.90;999.90;;;18.90;69.10;;;;;;5058067;28;20053;-74
2023/06/25 05:25:48;;;;;;;1999.90;999.90;;;18.90;69.30;;;;;;5058851;28;20044;-73
2023/06/25 05:28:15;;;;;;;1999.90;999.90;;;18.80;68.90;;;;;;5055617;28;20059;-73
2023/06/25 05:30:42;;;;;;;1999.90;999.90;;;18.90;68.50;;;;;;5063679;28;20539;-74
2023/06/25 05:33:10;;;;;;;1999.90;999.90;;;18.80;68.40;;;;;;5048685;28;20033;-72
2023/06/25 05:35:37;;;;;;;1999.90;999.90;;;18.80;68.80;;;;;;5058444;28;20080;-71
2023/06/25 05:38:04;;;;;;;1999.90;999.90;;;18.70;67.90;;;;;;5057820;28;20037;-72
2023/06/25 05:40:32;;;;;;;1999.90;999.90;;;18.70;67.70;;;;;;5056375;28;20086;-74
2023/06/25 05:42:59;;;;;;;1999.90;999.90;;;18.60;67.90;;;;;;5057455;28;20029;-71
2023/06/25 05:45:26;;;;;;;1999.90;999.90;;;18.60;68.20;;;;;;5050030;28;20028;-72
2023/06/25 05:47:53;;;;;;;1999.90;999.90;;;18.50;67.90;;;;;;5055377;28;20037;-72
2023/06/25 05:50:21;;;;;;;1999.90;999.90;;;18.50;67.10;;;;;;5055276;28;20199;-72
2023/06/25 05:52:49;;;;;;;1999.90;999.90;;;18.50;67.00;;;;;;5053269;28;20115;-70
2023/06/25 05:55:16;;;;;;;1999.90;999.90;;;18.40;66.90;;;;;;5061332;28;20426;-71
2023/06/25 05:57:43;;;;;;;1999.90;999.90;;;18.30;67.20;;;;;;5056928;28;20020;-72
2023/06/25 06:00:11;;;;;;;1999.90;999.90;;;18.30;67.30;;;;;;5053429;28;20025;-72
2023/06/25 06:02:38;;;;;;;1999.90;999.90;;;18.30;67.40;;;;;;5058929;28;20045;-72
2023/06/25 06:05:06;;;;;;;1999.90;999.90;;;18.30;68.00;;;;;;5052284;28;20377;-72
2023/06/25 06:07:33;;;;;;;1999.90;999.90;;;18.30;67.80;;;;;;5051498;28;20391;-72
2023/06/25 06:10:01;;;;;;;1999.90;999.90;;;18.30;67.20;;;;;;5066027;28;20395;-73
2023/06/25 06:12:29;;;;;;;1999.90;999.90;;;18.40;66.40;;;;;;5054554;28;20360;-73
2023/06/25 06:14:56;;;;;;;1999.90;999.90;;;18.50;67.00;;;;;;5061205;28;20094;-71
2023/06/25 06:17:23;;;;;;;1999.90;999.90;;;18.50;66.80;;;;;;5054586;28;20536;-74
2023/06/25 06:19:51;;;;;;;1999.90;999.90;;;18.50;66.10;;;;;;5060687;28;20102;-71
2023/06/25 06:22:18;;;;;;;1999.90;999.90;;;18.50;66.50;;;;;;5051679;28;20025;-74
2023/06/25 06:24:45;;;;;;;1999.90;999.90;;;18.50;66.30;;;;;;5048446;28;20434;-72
2023/06/25 06:27:13;;;;;;;1999.90;999.90;;;18.40;66.60;;;;;;5050150;28;20048;-74
2023/06/25 06:29:40;;;;;;;1999.90;999.90;;;18.30;66.10;;;;;;5051886;28;20470;-71
2023/06/25 06:32:08;;;;;;;1999.90;999.90;;;18.20;66.70;;;;;;5050492;28;20037;-75
2023/06/25 06:34:36;;;;;;;1999.90;999.90;;;18.10;66.80;;;;;;5056896;28;20029;-72
2023/06/25 06:37:03;;;;;;;1999.90;999.90;;;17.90;67.20;;;;;;5053595;28;20386;-72
2023/06/25 06:39:30;;;;;;;1999.90;999.90;;;17.70;67.60;;;;;;5052554;28;20041;-71
2023/06/25 06:41:58;;;;;;;1999.90;999.90;;;17.50;68.40;;;;;;5072543;28;20017;-73
2023/06/25 06:44:25;;;;;;;1999.90;999.90;;;17.30;68.40;;;;;;5054973;28;20032;-72
2023/06/25 06:46:53;;;;;;;1999.90;999.90;;;17.10;68.50;;;;;;5050359;28;20033;-71
2023/06/25 06:49:20;;;;;;;1999.90;999.90;;;16.90;69.10;;;;;;5059611;28;20036;-71
2023/06/25 06:51:48;;;;;;;1999.90;999.90;;;16.80;69.00;;;;;;5054329;28;20104;-76
2023/06/25 06:54:15;;;;;;;1999.90;999.90;;;16.80;68.40;;;;;;5055419;28;20020;-73
2023/06/25 06:56:42;;;;;;;1999.90;999.90;;;16.70;68.90;;;;;;5054589;28;20043;-73
2023/06/25 06:59:10;;;;;;;1999.90;999.90;;;16.60;69.10;;;;;;5053156;28;20051;-73
2023/06/25 07:01:37;;;;;;;1999.90;999.90;;;16.60;69.20;;;;;;5058835;28;20046;-75
2023/06/25 07:04:04;;;;;;;1999.90;999.90;;;16.50;69.30;;;;;;5054467;28;20056;-71
2023/06/25 07:06:32;;;;;;;1999.90;999.90;;;16.40;69.40;;;;;;5053357;28;20394;-71
2023/06/25 07:09:00;;;;;;;1999.90;999.90;;;16.30;69.30;;;;;;5060515;28;20040;-72
2023/06/25 07:11:27;;;;;;;1999.90;999.90;;;16.20;69.30;;;;;;5051635;28;20112;-72
2023/06/25 07:13:54;;;;;;;1999.90;999.90;;;16.10;69.00;;;;;;5048468;28;20037;-71
2023/06/25 07:16:22;;;;;;;1999.90;999.90;;;16.20;69.20;;;;;;5053993;28;20028;-72
2023/06/25 07:18:49;;;;;;;1999.90;999.90;;;16.10;69.40;;;;;;5053006;28;20195;-70
2023/06/25 07:21:16;;;;;;;1999.90;999.90;;;16.10;68.80;;;;;;5051972;28;20029;-71
2023/06/25 07:23:44;;;;;;;1999.90;999.90;;;16.10;68.90;;;;;;5050605;28;21148;-73
2023/06/25 07:26:11;;;;;;;1999.90;999.90;;;16.00;69.40;;;;;;5048037;28;20113;-71
2023/06/25 07:28:38;;;;;;;1999.90;999.90;;;15.90;69.40;;;;;;5044844;28;20022;-71
2023/06/25 07:31:06;;;;;;;1999.90;999.90;;;15.80;69.70;;;;;;5047963;28;20025;-69
2023/06/25 07:33:33;;;;;;;1999.90;999.90;;;15.70;70.00;;;;;;5054252;28;20067;-68
2023/06/25 07:36:00;;;;;;;1999.90;999.90;;;15.60;70.40;;;;;;5048004;28;20070;-69
2023/06/25 07:38:28;;;;;;;1999.90;999.90;;;15.60;70.10;;;;;;5053640;28;20039;-70
2023/06/25 07:40:55;;;;;;;1999.90;999.90;;;15.50;70.40;;;;;;5044713;28;20142;-70
2023/06/25 07:43:22;;;;;;;1999.90;999.90;;;15.40;70.90;;;;;;5048368;28;20112;-69
2023/06/25 07:45:50;;;;;;;1999.90;999.90;;;15.30;71.80;;;;;;5041387;28;20028;-71
2023/06/25 07:48:17;;;;;;;1999.90;999.90;;;15.20;72.40;;;;;;5052442;28;20025;-70
2023/06/25 07:50:44;;;;;;;1999.90;999.90;;;15.00;73.00;;;;;;5047764;28;20103;-68
2023/06/25 07:53:12;;;;;;;1999.90;999.90;;;14.90;73.30;;;;;;5053210;28;20498;-71
2023/06/25 07:55:44;;;;;;;1999.90;999.90;;;14.80;73.70;;;;;;5047534;28;20033;-69
2023/06/25 07:58:12;;;;;;;1999.90;999.90;;;14.70;73.90;;;;;;5051836;28;20424;-70
2023/06/25 08:00:39;;;;;;;1999.90;999.90;;;14.70;74.20;;;;;;5051374;28;20121;-69
2023/06/25 08:03:07;;;;;;;1999.90;999.90;;;14.70;73.70;;;;;;5049712;28;20029;-74
2023/06/25 08:05:34;;;;;;;1999.90;999.90;;;14.80;74.10;;;;;;5054266;28;20844;-70
2023/06/25 08:08:01;;;;;;;1999.90;999.90;;;14.80;74.30;;;;;;5044493;28;20033;-71
2023/06/25 08:10:29;;;;;;;1999.90;999.90;;;14.70;74.40;;;;;;5049026;28;20118;-68
2023/06/25 08:12:56;;;;;;;1999.90;999.90;;;14.70;74.70;;;;;;5054848;28;20052;-71
2023/06/25 08:15:24;;;;;;;1999.90;999.90;;;14.70;75.10;;;;;;5051300;28;20509;-70
2023/06/25 08:17:51;;;;;;;1999.90;999.90;;;14.60;75.10;;;;;;5058148;28;20060;-69
2023/06/25 08:20:18;;;;;;;1999.90;999.90;;;14.50;75.20;;;;;;5050519;28;20028;-70
2023/06/25 08:22:46;;;;;;;1999.90;999.90;;;14.50;75.20;;;;;;5053931;28;20028;-70
2023/06/25 08:25:23;;;;;;;1999.90;999.90;;;14.40;75.50;;;;;;5046761;28;20099;-73
2023/06/25 08:27:51;;;;;;;1999.90;999.90;;;14.40;75.50;;;;;;5057732;28;20144;-71
2023/06/25 08:30:19;;;;;;;1999.90;999.90;;;14.40;75.50;;;;;;5052532;28;20039;-70
2023/06/25 08:32:46;;;;;;;1999.90;999.90;;;14.40;75.60;;;;;;5057282;28;20419;-71
2023/06/25 08:35:13;;;;;;;1999.90;999.90;;;14.40;75.70;;;;;;5052358;28;20071;-71
2023/06/25 08:37:41;;;;;;;1999.90;999.90;;;14.40;75.80;;;;;;5059047;28;20039;-70
2023/06/25 08:40:12;;;;;;;1999.90;999.90;;;14.40;76.10;;;;;;5057511;28;20033;-72
2023/06/25 08:42:42;;;;;;;1999.90;999.90;;;14.30;76.10;;;;;;5053931;28;20060;-72
2023/06/25 08:45:13;;;;;;;1999.90;999.90;;;14.20;76.30;;;;;;5051094;28;20499;-73
2023/06/25 08:47:41;;;;;;;1999.90;999.90;;;14.20;76.40;;;;;;5058785;28;20079;-74
2023/06/25 08:50:09;;;;;;;1999.90;999.90;;;14.20;76.60;;;;;;5052647;28;20395;-72
2023/06/25 08:52:40;;;;;;;1999.90;999.90;;;14.10;76.50;;;;;;5065229;28;20029;-73
2023/06/25 08:55:11;;;;;;;1999.90;999.90;;;14.10;76.60;;;;;;5060710;28;20039;-72
2023/06/25 08:57:38;;;;;;;1999.90;999.90;;;14.00;76.70;;;;;;5054444;28;20035;-70
2023/06/25 09:00:07;;;;;;;1999.90;999.90;;;14.00;76.80;;;;;;5061782;28;20037;-70
2023/06/25 09:02:35;;;;;;;1999.90;999.90;;;13.90;76.50;;;;;;5059781;28;20037;-69
2023/06/25 09:05:07;;;;;;;1999.90;999.90;;;13.90;76.70;;;;;;5054942;28;20064;-73
2023/06/25 09:07:42;;;;;;;1999.90;999.90;;;13.90;76.60;;;;;;5053475;28;20044;-73
2023/06/25 09:10:10;;;;;;;1999.90;999.90;;;13.80;76.50;;;;;;5051740;28;20043;-71
2023/06/25 09:12:37;;;;;;;1999.90;999.90;;;13.80;76.40;;;;;;5062486;28;20115;-70
2023/06/25 09:15:07;;;;;;;1999.90;999.90;;;13.80;76.70;;;;;;5052304;28;20032;-71
2023/06/25 09:17:36;;;;;;;1999.90;999.90;;;13.80;76.80;;;;;;5052061;28;20071;-70
2023/06/25 09:20:08;;;;;;;1999.90;999.90;;;13.70;76.80;;;;;;5052745;28;20041;-70
2023/06/25 09:22:48;;;;;;;1999.90;999.90;;;13.60;77.00;;;;;;5051781;28;20064;-70
2023/06/25 09:25:15;;;;;;;1999.90;999.90;;;13.60;76.80;;;;;;5051576;28;20064;-74
2023/06/25 09:27:43;;;;;;;1999.90;999.90;;;13.70;76.40;;;;;;5053902;28;20051;-70
2023/06/25 09:30:12;;;;;;;1999.90;999.90;;;13.70;76.20;;;;;;5050315;28;20036;-71
2023/06/25 09:32:53;;;;;;;1999.90;999.90;;;13.70;76.00;;;;;;5047745;28;20043;-70
2023/06/25 09:35:25;;;;;;;1999.90;999.90;;;13.70;75.80;;;;;;5054820;28;20029;-74
2023/06/25 09:37:54;;;;;;;1999.90;999.90;;;13.70;75.90;;;;;;5055764;28;20060;-70
2023/06/25 09:40:21;;;;;;;1999.90;999.90;;;13.70;75.80;;;;;;5057956;28;20047;-71
2023/06/25 09:42:52;;;;;;;1999.90;999.90;;;13.60;76.00;;;;;;5057896;28;20033;-70
2023/06/25 09:45:22;;;;;;;1999.90;999.90;;;13.60;75.70;;;;;;5048919;28;20033;-71
2023/06/25 09:47:50;;;;;;;1999.90;999.90;;;13.60;75.60;;;;;;5064362;28;20458;-73
2023/06/25 09:50:29;;;;;;;1999.90;999.90;;;13.60;75.50;;;;;;5049920;28;20494;-70
2023/06/25 09:53:02;;;;;;;1999.90;999.90;;;13.70;75.40;;;;;;5059356;28;20523;-72
2023/06/25 09:55:30;;;;;;;1999.90;999.90;;;13.70;75.00;;;;;;5049621;28;20036;-68
2023/06/25 09:57:57;;;;;;;1999.90;999.90;;;13.70;74.60;;;;;;5055034;28;20021;-69
2023/06/25 10:00:26;;;;;;;1999.90;999.90;;;13.70;74.90;;;;;;5051788;28;20112;-71
2023/06/25 10:02:54;;;;;;;1999.90;999.90;;;13.70;74.80;;;;;;5052121;28;20029;-70
2023/06/25 10:05:22;;;;;;;1999.90;999.90;;;13.60;74.90;;;;;;5066631;28;20508;-70
2023/06/25 10:07:49;;;;;;;1999.90;999.90;;;13.60;74.80;;;;;;5056782;28;20037;-69
2023/06/25 10:10:24;;;;;;;1999.90;999.90;;;13.50;74.70;;;;;;5055752;28;20382;-69
2023/06/25 10:12:52;;;;;;;1999.90;999.90;;;13.60;74.50;;;;;;5058931;28;20033;-70
2023/06/25 10:15:33;;;;;;;1999.90;999.90;;;13.50;74.50;;;;;;5049310;28;20038;-70
2023/06/25 10:18:04;;;;;;;1999.90;999.90;;;13.50;74.70;;;;;;5051959;28;20048;-71
2023/06/25 10:20:33;;;;;;;1999.90;999.90;;;13.50;74.60;;;;;;5047937;28;20155;-70
2023/06/25 10:23:12;;;;;;;1999.90;999.90;;;13.40;74.50;;;;;;5053315;28;20036;-73
2023/06/25 10:25:56;;;;;;;1999.90;999.90;;;13.40;75.20;;;;;;5043223;28;20025;-71
2023/06/25 10:28:37;;;;;;;1999.90;999.90;;;13.40;74.60;;;;;;5056614;28;20120;-74
2023/06/25 10:31:14;;;;;;;1999.90;999.90;;;13.40;74.60;;;;;;5048335;28;20021;-73
2023/06/25 10:33:42;;;;;;;1999.90;999.90;;;13.30;74.80;;;;;;5058186;28;20582;-72
2023/06/25 10:36:10;;;;;;;1999.90;999.90;;;13.30;74.90;;;;;;5055947;28;20128;-71
2023/06/25 10:38:38;;;;;;;1999.90;999.90;;;13.30;74.90;;;;;;5062848;28;20040;-74
2023/06/25 10:41:06;;;;;;;1999.90;999.90;;;13.20;75.00;;;;;;5051295;28;20017;-75
2023/06/25 10:43:36;;;;;;;1999.90;999.90;;;13.30;74.90;;;;;;5063293;28;20040;-71
2023/06/25 10:46:03;;;;;;;1999.90;999.90;;;13.30;75.10;;;;;;5045367;28;20044;-70
2023/06/25 10:48:30;;;;;;;1999.90;999.90;;;13.20;75.10;;;;;;5048103;28;20078;-74
2023/06/25 10:50:58;;;;;;;1999.90;999.90;;;13.20;75.20;;;;;;5048397;28;20037;-72
2023/06/25 10:53:25;;;;;;;1999.90;999.90;;;13.10;75.10;;;;;;5054132;28;20025;-74
2023/06/25 10:55:54;;;;;;;1999.90;999.90;;;13.10;75.40;;;;;;5043181;28;20032;-73
2023/06/25 10:58:24;;;;;;;1999.90;999.90;;;13.10;75.60;;;;;;5052286;28;20040;-71
2023/06/25 11:00:55;;;;;;;1999.90;999.90;;;13.00;75.70;;;;;;5051184;28;20030;-76
2023/06/25 11:03:24;;;;;;;1999.90;999.90;;;12.90;75.90;;;;;;5051446;28;20115;-72
2023/06/25 11:05:51;;;;;;;1999.90;999.90;;;12.90;76.10;;;;;;5048816;28;20094;-71
2023/06/25 11:08:23;;;;;;;1999.90;999.90;;;12.90;76.10;;;;;;5040233;28;20369;-71
2023/06/25 11:10:51;;;;;;;1999.90;999.90;;;12.80;76.50;;;;;;5051138;28;20028;-73
2023/06/25 11:13:18;;;;;;;1999.90;999.90;;;12.80;76.40;;;;;;5058623;28;20545;-74
2023/06/25 11:15:45;;;;;;;1999.90;999.90;;;12.80;76.60;;;;;;5048965;28;20024;-73
2023/06/25 11:18:13;;;;;;;1999.90;999.90;;;12.70;76.80;;;;;;5050919;28;20051;-73
2023/06/25 11:20:42;;;;;;;1999.90;999.90;;;12.60;76.80;;;;;;5051254;28;20048;-73
2023/06/25 11:23:15;;;;;;;1999.90;999.90;;;12.60;77.00;;;;;;5045829;28;20036;-76
2023/06/25 11:25:44;;;;;;;1999.90;999.90;;;12.60;76.90;;;;;;5043546;28;20033;-74
2023/06/25 11:28:13;;;;;;;1999.90;999.90;;;12.60;76.90;;;;;;5051702;28;20078;-70
2023/06/25 11:30:43;;;;;;;1999.90;999.90;;;12.50;77.20;;;;;;5040970;28;20036;-72
2023/06/25 11:33:11;;;;;;;1999.90;999.90;;;12.50;77.20;;;;;;5051367;28;20044;-74
2023/06/25 11:35:40;;;;;;;1999.90;999.90;;;12.40;77.40;;;;;;5045239;28;20502;-77
2023/06/25 11:38:08;;;;;;;1999.90;999.90;;;12.20;77.70;;;;;;5058571;28;20033;-70
2023/06/25 11:40:37;;;;;;;1999.90;999.90;;;12.20;77.80;;;;;;5043769;28;20137;-75
2023/06/25 11:43:04;;;;;;;1999.90;999.90;;;12.10;77.70;;;;;;5058019;28;20227;-77
2023/06/25 11:45:44;;;;;;;1999.90;999.90;;;12.10;77.70;;;;;;5056743;28;20035;-70
2023/06/25 11:48:16;;;;;;;1999.90;999.90;;;12.10;77.10;;;;;;5060896;28;20063;-77
2023/06/25 11:50:49;;;;;;;1999.90;999.90;;;12.20;77.00;;;;;;5052734;28;20032;-77
2023/06/25 11:53:17;;;;;;;1999.90;999.90;;;12.20;76.70;;;;;;5055920;28;20637;-74
2023/06/25 11:55:45;;;;;;;1999.90;999.90;;;12.40;76.20;;;;;;5059006;28;20024;-74
2023/06/25 11:58:13;;;;;;;1999.90;999.90;;;12.40;75.90;;;;;;5053085;28;20449;-73
2023/06/25 12:00:42;;;;;;;1999.90;999.90;;;12.30;76.20;;;;;;5062321;28;20074;-72
2023/06/25 12:03:09;;;;;;;1999.90;999.90;;;12.20;76.80;;;;;;5077244;28;20093;-73
2023/06/25 12:05:37;;;;;;;1999.90;999.90;;;12.00;77.70;;;;;;5056003;28;20040;-72